Time;durP1;ratioP1;P1;durP2;ratioP2;P2;SDS_P1;SDS_P2;PMS_P1;PMS_P2;Temp;Humidity;BMP_temperature;BMP_pressure;BME280_temperature;BME280_humidity;BME280_pressure;Samples;Min_cycle;Max_cycle;Signal;HPM_P1;HPM_P2
2022/08/06 00:04:06;;;;;;;0.55;0.20;;;;;;;23.49;35.62;102529.03;16135702;19;129320;-58
2022/08/06 00:09:32;;;;;;;3.50;0.35;;;;;;;23.49;35.60;102521.50;16133998;19;130214;-58
2022/08/06 00:15:15;;;;;;;1.48;0.40;;;;;;;23.49;35.42;102529.03;16131614;19;129654;-56
2022/08/06 00:20:57;;;;;;;1.20;0.40;;;;;;;23.49;36.06;102526.25;16131368;19;129201;-57
2022/08/06 00:26:21;;;;;;;1.02;0.22;;;;;;;23.47;35.80;102523.69;16133456;19;128883;-57
2022/08/06 00:31:49;;;;;;;5.68;0.28;;;;;;;23.45;36.13;102539.81;16146841;19;129540;-58
2022/08/06 00:37:11;;;;;;;1.08;0.30;;;;;;;23.45;35.96;102533.41;16147261;19;129652;-58
2022/08/06 00:42:40;;;;;;;1.48;0.22;;;;;;;23.45;36.02;102545.41;16144621;19;129499;-57
2022/08/06 00:48:03;;;;;;;1.35;0.20;;;;;;;23.45;36.11;102550.16;16145458;19;129113;-57
2022/08/06 00:53:28;;;;;;;1.55;0.30;;;;;;;23.45;36.28;102550.16;16144812;19;129318;-58
2022/08/06 00:58:55;;;;;;;0.68;0.20;;;;;;;23.42;36.31;102554.28;16143692;19;128901;-57
2022/08/06 01:04:24;;;;;;;1.15;0.30;;;;;;;23.41;36.24;102560.97;16145180;19;131693;-58
2022/08/06 01:09:49;;;;;;;1.05;0.30;;;;;;;23.39;36.36;102565.06;16146010;19;129804;-57
2022/08/06 01:15:18;;;;;;;0.73;0.20;;;;;;;23.38;36.21;102578.19;16145564;19;129281;-58
2022/08/06 01:21:00;;;;;;;0.98;0.10;;;;;;;23.40;36.33;102563.97;16142932;19;129556;-58
2022/08/06 01:26:59;;;;;;;0.50;0.10;;;;;;;23.38;36.59;102578.19;16143089;19;129775;-57
2022/08/06 01:32:29;;;;;;;0.30;0.10;;;;;;;23.38;36.19;102577.34;16144622;19;130396;-57
2022/08/06 01:37:59;;;;;;;0.20;0.20;;;;;;;23.37;36.60;102582.06;16139604;19;129377;-57
2022/08/06 01:43:24;;;;;;;1.65;0.10;;;;;;;23.35;36.88;102585.13;16140922;19;129705;-59
2022/08/06 01:49:09;;;;;;;1.33;0.08;;;;;;;23.36;36.53;102580.38;16142955;19;129514;-58
2022/08/06 01:54:54;;;;;;;0.80;0.20;;;;;;;23.34;36.53;102586.19;16137080;19;130124;-57
2022/08/06 02:00:17;;;;;;;0.33;0.10;;;;;;;23.33;36.84;102587.28;16139631;19;129422;-56
2022/08/06 02:05:41;;;;;;;1.15;0.50;;;;;;;23.33;36.80;102576.13;16142694;19;128992;-58
2022/08/06 02:11:08;;;;;;;1.08;0.10;;;;;;;23.31;36.88;102577.47;16141187;19;129350;-58
2022/08/06 02:16:56;;;;;;;3.30;0.10;;;;;;;23.31;37.13;102578.28;16134020;19;129402;-57
2022/08/06 02:22:36;;;;;;;0.95;0.20;;;;;;;23.31;37.22;102578.28;16137027;19;129857;-56
2022/08/06 02:28:01;;;;;;;1.60;0.10;;;;;;;23.30;37.00;102584.13;16140991;19;130221;-57
2022/08/06 02:33:25;;;;;;;0.10;0.10;;;;;;;23.28;36.79;102578.75;16140850;19;130228;-58
2022/08/06 02:39:15;;;;;;;0.63;0.10;;;;;;;23.29;37.12;102574.88;16137356;19;129293;-59
2022/08/06 02:44:40;;;;;;;0.65;0.10;;;;;;;23.27;37.22;102579.00;16134918;19;129943;-58
2022/08/06 02:50:09;;;;;;;0.00;0.00;;;;;;;23.26;37.17;102580.97;16137705;19;129544;-59
2022/08/06 02:55:39;;;;;;;0.20;0.08;;;;;;;23.26;37.04;102585.69;16133431;19;129063;-58
2022/08/06 03:01:14;;;;;;;0.10;0.05;;;;;;;23.24;37.16;102594.31;16134508;19;129781;-57
2022/08/06 03:06:46;;;;;;;0.63;0.00;;;;;;;23.23;37.47;102598.19;16139635;19;129440;-57
2022/08/06 03:12:10;;;;;;;0.55;0.10;;;;;;;23.21;37.58;102611.53;16138315;19;128914;-59
2022/08/06 03:17:58;;;;;;;1.00;0.00;;;;;;;23.19;37.59;102606.19;16137317;19;130458;-57
2022/08/06 03:23:22;;;;;;;0.00;0.00;;;;;;;23.20;37.17;102607.88;16137746;19;129387;-58
2022/08/06 03:28:47;;;;;;;0.47;0.10;;;;;;;23.19;37.56;102610.91;16136401;19;129708;-58
2022/08/06 03:34:10;;;;;;;0.20;0.10;;;;;;;23.19;37.54;102609.00;16132821;19;130115;-59
2022/08/06 03:39:36;;;;;;;0.10;0.00;;;;;;;23.18;37.63;102623.16;16134654;19;129638;-57
2022/08/06 03:44:58;;;;;;;0.10;0.10;;;;;;;23.18;37.82;102621.25;16133091;19;130222;-66
2022/08/06 03:50:27;;;;;;;0.30;0.10;;;;;;;23.18;37.73;102623.16;16132692;19;129658;-64
2022/08/06 03:55:52;;;;;;;0.50;0.10;;;;;;;23.16;37.75;102626.19;16133480;19;129369;-64
2022/08/06 04:01:22;;;;;;;0.75;0.10;;;;;;;23.17;37.70;102627.91;16132272;19;130011;-57
2022/08/06 04:06:45;;;;;;;0.00;0.00;;;;;;;23.15;37.86;102635.66;16149982;19;129544;-57
2022/08/06 04:12:14;;;;;;;0.20;0.00;;;;;;;23.14;37.82;102638.69;16148570;19;129797;-59
2022/08/06 04:17:57;;;;;;;0.50;0.20;;;;;;;23.13;38.26;102642.59;16149350;19;130390;-57
2022/08/06 04:23:18;;;;;;;0.17;0.08;;;;;;;23.12;37.75;102654.84;16148859;19;129245;-57
2022/08/06 04:29:01;;;;;;;0.10;0.03;;;;;;;23.12;37.90;102649.25;16148073;19;129002;-58
2022/08/06 04:34:25;;;;;;;0.28;0.10;;;;;;;23.11;38.02;102647.53;16148996;19;131985;-58
2022/08/06 04:39:49;;;;;;;0.10;0.00;;;;;;;23.10;37.97;102657.00;16145861;19;130170;-57
2022/08/06 04:45:11;;;;;;;0.22;0.00;;;;;;;23.09;37.87;102658.09;16142164;19;131455;-58
2022/08/06 04:50:54;;;;;;;0.80;0.20;;;;;;;23.09;38.09;102660.88;16146519;19;130911;-57
2022/08/06 04:56:16;;;;;;;0.30;0.00;;;;;;;23.07;38.01;102661.13;16146206;19;129015;-57
2022/08/06 05:01:38;;;;;;;0.00;0.00;;;;;;;23.05;38.26;102664.13;16142664;19;130639;-58
2022/08/06 05:07:28;;;;;;;0.25;0.00;;;;;;;23.05;37.84;102675.28;16146842;19;129485;-57
2022/08/06 05:13:14;;;;;;;0.20;0.00;;;;;;;23.05;38.13;102672.50;16143733;19;129444;-57
2022/08/06 05:19:02;;;;;;;2.03;0.50;;;;;;;23.01;37.99;102676.88;16144668;19;129752;-56
2022/08/06 05:24:42;;;;;;;1.60;0.50;;;;;;;22.97;37.75;102672.84;16144350;19;129533;-57
2022/08/06 05:30:24;;;;;;;1.60;0.20;;;;;;;22.96;37.68;102687.88;16141465;19;129348;-56
2022/08/06 05:35:48;;;;;;;0.70;0.33;;;;;;;22.95;37.73;102688.97;16143082;19;130590;-55
2022/08/06 05:41:23;;;;;;;3.13;0.20;;;;;;;22.96;37.66;102693.47;16138640;19;129552;-57
2022/08/06 05:46:54;;;;;;;1.15;0.30;;;;;;;22.96;37.74;102699.03;16144784;19;129444;-57
2022/08/06 05:52:23;;;;;;;3.70;0.40;;;;;;;22.96;37.62;102703.75;16140159;19;129649;-57
2022/08/06 05:57:54;;;;;;;1.08;0.20;;;;;;;22.96;38.05;102698.16;16141667;19;131868;-58
2022/08/06 06:03:19;;;;;;;1.33;0.40;;;;;;;22.94;37.80;102695.63;16139614;19;129558;-56
2022/08/06 06:08:46;;;;;;;2.65;0.30;;;;;;;22.94;37.67;102700.38;16140603;19;130002;-57
2022/08/06 06:14:28;;;;;;;1.15;0.38;;;;;;;22.95;38.16;102702.06;16140581;19;129991;-57
2022/08/06 06:20:12;;;;;;;0.70;0.25;;;;;;;22.95;37.80;102702.06;16140746;19;130141;-57
2022/08/06 06:25:43;;;;;;;0.98;0.30;;;;;;;22.94;37.79;102711.53;16138207;19;130762;-58
2022/08/06 06:31:28;;;;;;;1.17;0.32;;;;;;;22.95;38.04;102702.91;16140778;19;129367;-58
2022/08/06 06:37:18;;;;;;;0.63;0.30;;;;;;;22.95;37.78;102713.25;16139719;19;129018;-57
2022/08/06 06:42:50;;;;;;;0.52;0.30;;;;;;;22.91;37.51;102718.41;16137452;19;130216;-58
2022/08/06 06:48:32;;;;;;;1.35;0.30;;;;;;;22.93;37.62;102718.19;16134609;19;129348;-57
2022/08/06 06:53:56;;;;;;;6.40;0.40;;;;;;;22.92;37.89;102714.53;16134160;19;129877;-55
2022/08/06 06:59:34;;;;;;;5.85;1.38;;;;;;;22.87;36.15;102719.94;16133870;19;129194;-57
2022/08/06 07:05:17;;;;;;;14.65;2.33;;;;;;;22.66;35.86;102730.44;16139769;19;129424;-57
2022/08/06 07:11:00;;;;;;;6.18;1.27;;;;;;;22.49;35.28;102732.13;16136005;19;130104;-56
2022/08/06 07:16:23;;;;;;;8.50;1.05;;;;;;;22.17;35.29;102740.50;16137120;19;130880;-57
2022/08/06 07:21:58;;;;;;;8.53;1.43;;;;;;;21.95;35.23;102743.69;16134312;19;129569;-57
2022/08/06 07:27:23;;;;;;;6.93;1.10;;;;;;;21.99;35.35;102753.31;16137964;19;129165;-58
2022/08/06 07:33:02;;;;;;;7.07;1.10;;;;;;;22.05;35.32;102749.59;16137798;19;128871;-57
2022/08/06 07:38:28;;;;;;;5.20;1.27;;;;;;;22.07;35.11;102753.03;16145690;19;129373;-58
2022/08/06 07:43:56;;;;;;;4.55;0.98;;;;;;;22.12;35.25;102756.00;16146882;19;129186;-57
2022/08/06 07:49:22;;;;;;;6.55;1.15;;;;;;;22.14;34.97;102752.97;16152435;19;129085;-56
2022/08/06 07:55:06;;;;;;;4.70;0.70;;;;;;;22.11;34.93;102759.88;16147779;19;129540;-57
2022/08/06 08:00:31;;;;;;;5.15;1.33;;;;;;;22.17;35.13;102757.22;16150730;19;130130;-56
2022/08/06 08:11:40;;;;;;;22.23;8.13;;;;;;;22.22;34.83;102761.09;16150392;19;130135;-60
2022/08/06 08:17:22;;;;;;;19.92;7.25;;;;;;;22.22;35.22;102761.09;16152871;19;129051;-57
2022/08/06 08:22:56;;;;;;;14.95;5.25;;;;;;;22.22;34.95;102749.94;16145784;19;129152;-58
2022/08/06 08:28:19;;;;;;;15.73;4.03;;;;;;;22.25;35.31;102754.22;16148961;19;129605;-58
2022/08/06 08:33:41;;;;;;;9.43;3.50;;;;;;;22.21;34.92;102764.09;16143033;19;129833;-58
2022/08/06 08:39:05;;;;;;;5.00;1.17;;;;;;;21.76;34.75;102763.09;16146899;19;129954;-58
2022/08/06 08:44:27;;;;;;;3.53;0.90;;;;;;;21.85;34.96;102758.09;16144247;19;129259;-57
2022/08/06 08:49:55;;;;;;;6.50;1.05;;;;;;;22.07;34.97;102758.59;16148955;19;131352;-58
2022/08/06 08:55:21;;;;;;;8.70;0.87;;;;;;;22.26;34.82;102751.19;16142492;19;129824;-58
2022/08/06 09:01:07;;;;;;;3.92;0.80;;;;;;;22.40;35.00;102746.34;16144935;19;129138;-59
2022/08/06 09:06:29;;;;;;;10.45;3.13;;;;;;;22.53;35.13;102744.53;16149133;19;129985;-58
2022/08/06 09:11:58;;;;;;;15.57;3.40;;;;;;;22.67;35.42;102756.41;16147399;19;129680;-58
2022/08/06 09:17:29;;;;;;;16.17;4.50;;;;;;;22.74;35.79;102763.66;16144455;19;129588;-59
2022/08/06 09:23:12;;;;;;;25.38;5.88;;;;;;;22.77;36.26;102761.50;16135452;19;130729;-58
2022/08/06 09:28:37;;;;;;;15.15;4.45;;;;;;;22.77;36.32;102762.31;16140256;19;130497;-53
2022/08/06 09:34:06;;;;;;;16.05;3.20;;;;;;;22.78;36.19;102755.66;16142274;19;129323;-54
2022/08/06 09:39:48;;;;;;;11.88;2.70;;;;;;;22.80;35.88;102766.59;16138191;19;129974;-57
2022/08/06 09:45:23;;;;;;;9.02;2.30;;;;;;;22.84;36.03;102759.47;16139271;19;129565;-54
2022/08/06 09:51:04;;;;;;;6.25;1.63;;;;;;;22.85;35.95;102747.22;16139855;19;129775;-57
2022/08/06 09:56:32;;;;;;;9.73;1.55;;;;;;;22.91;36.22;102763.06;16140387;19;129425;-60
2022/08/06 10:01:54;;;;;;;3.35;1.02;;;;;;;22.97;35.78;102750.97;16138347;19;129710;-56
2022/08/06 10:07:30;;;;;;;12.77;1.33;;;;;;;23.02;35.84;102753.06;16138848;19;129072;-58
2022/08/06 10:13:31;;;;;;;8.18;1.17;;;;;;;23.02;35.96;102748.34;16138683;19;129974;-58
2022/08/06 10:19:16;;;;;;;6.07;1.33;;;;;;;23.04;35.56;102746.16;16139539;19;130024;-58
2022/08/06 10:24:41;;;;;;;5.75;0.80;;;;;;;23.04;35.77;102740.59;16133024;19;129221;-59
2022/08/06 10:30:10;;;;;;;4.43;0.70;;;;;;;23.05;35.53;102742.28;16137208;19;129533;-59
2022/08/06 10:35:33;;;;;;;3.10;0.60;;;;;;;23.05;35.60;102745.09;16134462;19;129904;-59
2022/08/06 10:41:09;;;;;;;;;;;;;;;23.02;35.49;102734.38;16137460;19;129936;-58
2022/08/06 10:46:51;;;;;;;2.42;0.70;;;;;;;23.03;35.46;102724.91;16133393;19;129327;-58
2022/08/06 10:52:14;;;;;;;3.92;0.55;;;;;;;23.01;35.27;102735.50;16135171;19;129604;-55
2022/08/06 10:57:40;;;;;;;4.70;0.75;;;;;;;23.03;35.22;102726.88;16121055;19;130852;-60
2022/08/06 11:03:38;;;;;;;2.13;0.32;;;;;;;23.04;35.10;102718.25;16116769;19;129607;-58
2022/08/06 11:09:40;;;;;;;3.85;0.60;;;;;;;23.10;34.84;102718.41;16117873;19;129631;-57
2022/08/06 11:15:23;;;;;;;3.33;0.70;;;;;;;23.09;35.27;102722.28;16136699;19;131323;-57
2022/08/06 11:20:52;;;;;;;4.00;0.50;;;;;;;23.08;34.73;102712.22;16133827;19;129401;-56
2022/08/06 11:26:32;;;;;;;3.50;0.30;;;;;;;23.09;34.54;102709.19;16134862;19;129938;-57
2022/08/06 11:31:58;;;;;;;9.63;0.95;;;;;;;22.93;32.59;102705.06;16134653;19;130532;-55
2022/08/06 11:37:42;;;;;;;58.25;2.10;;;;;;;22.93;33.10;102709.81;16135892;19;129422;-56
2022/08/06 11:44:08;;;;;;;47.47;1.70;;;;;;;23.02;33.31;102703.66;16129688;19;128832;-57
2022/08/06 11:49:41;;;;;;;50.92;3.28;;;;;;;23.08;33.29;102690.72;16135711;19;129525;-58
2022/08/06 11:55:15;;;;;;;37.28;1.80;;;;;;;23.12;33.42;102699.50;16129599;19;129931;-59
2022/08/06 12:00:59;;;;;;;60.40;2.60;;;;;;;23.13;33.30;102692.84;15891783;19;3007651;-58
2022/08/06 12:06:41;;;;;;;58.67;3.07;;;;;;;23.13;33.40;102692.84;16129852;19;129140;-57
2022/08/06 12:12:32;;;;;;;37.28;1.98;;;;;;;23.15;32.96;102685.91;16125818;19;129485;-57
2022/08/06 12:17:57;;;;;;;31.63;1.55;;;;;;;23.19;33.11;102681.56;16124176;19;130517;-58
2022/08/06 12:23:39;;;;;;;25.25;1.17;;;;;;;23.28;33.03;102668.13;16135462;19;129462;-57
2022/08/06 12:29:18;;;;;;;15.98;1.27;;;;;;;23.28;32.14;102667.28;16149055;19;131477;-57
2022/08/06 12:35:12;;;;;;;33.15;1.65;;;;;;;23.28;32.37;102673.72;16148495;19;129046;-53
2022/08/06 12:40:34;;;;;;;31.48;2.45;;;;;;;23.24;32.69;102678.06;16143150;19;129561;-60
2022/08/06 12:46:00;;;;;;;27.63;1.83;;;;;;;23.28;32.30;102667.28;16142000;19;130004;-57
2022/08/06 12:51:31;;;;;;;47.13;2.60;;;;;;;23.30;32.40;102652.00;16144853;19;128851;-57
2022/08/06 12:56:53;;;;;;;20.52;1.55;;;;;;;23.27;32.85;102660.81;16145263;19;129464;-58
2022/08/06 13:02:20;;;;;;;24.35;1.70;;;;;;;23.24;32.37;102652.94;16142872;19;129179;-58
2022/08/06 13:07:47;;;;;;;20.17;1.38;;;;;;;23.22;32.37;102652.31;16147609;19;129672;-57
2022/08/06 13:13:10;;;;;;;13.60;0.93;;;;;;;23.20;32.40;102646.13;16147010;19;129653;-58
2022/08/06 13:19:07;;;;;;;12.38;1.13;;;;;;;23.21;31.53;102645.03;16140700;19;129618;-59
2022/08/06 13:24:39;;;;;;;11.23;1.00;;;;;;;23.22;31.27;102634.69;16140633;19;129495;-58
2022/08/06 13:30:29;;;;;;;10.60;0.77;;;;;;;23.22;30.90;102641.16;16145889;19;128958;-58
2022/08/06 13:36:08;;;;;;;6.80;0.80;;;;;;;23.20;31.38;102637.75;16145425;19;128908;-58
2022/08/06 13:41:33;;;;;;;1.40;0.50;;;;;;;23.17;31.33;102635.41;16144534;19;130030;-58
2022/08/06 13:46:58;;;;;;;7.90;0.50;;;;;;;23.15;31.17;102640.38;16138011;19;131185;-57
2022/08/06 13:52:40;;;;;;;8.80;0.88;;;;;;;23.07;30.98;102640.72;16140274;19;129566;-58
2022/08/06 13:58:04;;;;;;;5.05;0.60;;;;;;;23.07;30.82;102640.72;16138028;19;129046;-59
2022/08/06 14:03:29;;;;;;;11.32;0.90;;;;;;;23.08;30.43;102622.88;16138743;19;130033;-56
2022/08/06 14:08:59;;;;;;;18.33;1.20;;;;;;;23.13;30.30;102614.66;16142265;19;129131;-58
2022/08/06 14:14:23;;;;;;;6.25;0.98;;;;;;;23.15;31.22;102609.66;16140340;19;129067;-57
2022/08/06 14:19:49;;;;;;;3.33;0.75;;;;;;;23.10;29.68;102615.97;16142368;19;129503;-57
2022/08/06 14:25:30;;;;;;;29.25;2.03;;;;;;;22.96;28.88;102620.03;16135556;19;129365;-57
2022/08/06 14:31:12;;;;;;;14.00;1.13;;;;;;;22.94;29.43;102617.47;16141034;19;130929;-58
2022/08/06 14:36:34;;;;;;;5.57;1.00;;;;;;;23.01;29.55;102615.47;16135947;19;130003;-56
2022/08/06 14:47:43;;;;;;;19.60;1.40;;;;;;;23.11;29.60;102600.09;16138728;19;131651;-56
2022/08/06 14:53:20;;;;;;;15.80;1.38;;;;;;;23.16;30.19;102598.28;16135923;19;129203;-56
2022/08/06 14:58:43;;;;;;;13.45;1.13;;;;;;;23.16;29.43;102594.63;16141937;19;129899;-56
2022/08/06 15:04:06;;;;;;;18.10;1.02;;;;;;;23.10;30.00;102585.25;16133845;19;129060;-57
2022/08/06 15:09:43;;;;;;;6.75;1.10;;;;;;;23.12;30.29;102574.72;16138971;19;129638;-57
2022/08/06 15:15:25;;;;;;;4.70;0.85;;;;;;;23.14;29.77;102571.69;16133661;19;130271;-57
2022/08/06 15:21:06;;;;;;;4.45;1.20;;;;;;;23.17;29.92;102566.50;16136236;19;129041;-57
2022/08/06 15:26:36;;;;;;;4.43;0.80;;;;;;;23.21;29.93;102569.66;16136489;19;130266;-57
2022/08/06 15:32:08;;;;;;;4.93;0.90;;;;;;;23.20;29.97;102570.75;16133920;19;129320;-55
2022/08/06 15:37:38;;;;;;;3.35;0.93;;;;;;;23.15;30.05;102570.59;16134220;19;129773;-55
2022/08/06 15:43:20;;;;;;;6.72;0.93;;;;;;;23.18;30.17;102567.31;16130383;19;130706;-54
2022/08/06 15:48:44;;;;;;;11.27;4.50;;;;;;;23.22;30.31;102562.97;16134791;19;129226;-55
2022/08/06 15:54:08;;;;;;;15.65;5.88;;;;;;;23.23;30.39;102556.31;16130899;19;129810;-54
2022/08/06 15:59:30;;;;;;;21.60;11.05;;;;;;;23.24;30.42;102560.81;16142465;19;129434;-55
2022/08/06 16:05:12;;;;;;;28.20;17.42;;;;;;;23.23;30.66;102556.31;16146347;19;129274;-54
2022/08/06 16:10:52;;;;;;;21.30;12.18;;;;;;;23.24;30.83;102548.78;16151313;19;130483;-56
2022/08/06 16:16:14;;;;;;;16.42;10.30;;;;;;;23.23;31.04;102549.84;16150526;19;129135;-56
2022/08/06 16:21:36;;;;;;;19.02;8.95;;;;;;;23.21;30.97;102547.31;16150583;19;130630;-54
2022/08/06 16:27:03;;;;;;;12.05;7.28;;;;;;;23.22;31.27;102554.59;16148539;19;128901;-56
2022/08/06 16:32:25;;;;;;;16.85;7.30;;;;;;;23.20;31.25;102540.84;16146688;19;129560;-55
2022/08/06 16:37:47;;;;;;;13.35;6.45;;;;;;;23.19;31.58;102533.59;16146689;19;129490;-56
2022/08/06 16:43:12;;;;;;;13.23;6.05;;;;;;;23.21;31.21;102538.94;16138729;19;129272;-54
2022/08/06 16:48:35;;;;;;;10.98;5.30;;;;;;;23.19;31.05;102547.56;16146303;19;129399;-56
2022/08/06 16:53:56;;;;;;;21.35;4.43;;;;;;;23.25;31.49;102540.16;16140632;19;129312;-56
2022/08/06 16:59:36;;;;;;;14.82;3.33;;;;;;;23.27;31.45;102537.97;16147156;19;129331;-58
2022/08/06 17:05:05;;;;;;;15.43;3.13;;;;;;;23.31;31.13;102544.78;16144371;19;129416;-55
2022/08/06 17:10:27;;;;;;;10.27;2.53;;;;;;;23.35;31.50;102531.19;16144613;19;128852;-58
2022/08/06 17:15:56;;;;;;;6.57;2.33;;;;;;;23.37;31.30;102537.38;16145806;19;129409;-57
2022/08/06 17:21:18;;;;;;;7.38;2.08;;;;;;;23.38;31.76;102527.91;16146646;19;129551;-52
2022/08/06 17:26:42;;;;;;;15.10;2.22;;;;;;;23.38;31.99;102532.66;16143354;19;129439;-55
2022/08/06 17:32:05;;;;;;;15.55;1.67;;;;;;;23.36;31.72;102524.50;16146088;19;129756;-56
2022/08/06 17:37:49;;;;;;;7.55;1.42;;;;;;;23.35;31.25;102520.88;16145426;19;130042;-55
2022/08/06 17:43:12;;;;;;;8.17;0.97;;;;;;;23.33;31.00;102524.97;16142939;19;129883;-55
2022/08/06 17:48:43;;;;;;;17.77;1.42;;;;;;;23.31;30.56;102532.78;16142226;19;129554;-52
2022/08/06 17:54:05;;;;;;;10.23;1.55;;;;;;;23.25;31.13;102516.97;16138491;19;129416;-56
2022/08/06 17:59:47;;;;;;;4.88;1.20;;;;;;;23.20;30.96;102524.09;16143102;19;132023;-54
2022/08/06 18:05:11;;;;;;;9.57;1.00;;;;;;;23.14;31.26;102521.44;16139823;19;130855;-55
2022/08/06 18:10:54;;;;;;;9.68;1.27;;;;;;;23.11;31.23;102522.75;16144200;19;130045;-57
2022/08/06 18:16:16;;;;;;;4.85;1.17;;;;;;;23.08;31.36;102530.75;16141650;19;129379;-55
2022/08/06 18:21:39;;;;;;;2.83;0.90;;;;;;;23.07;31.77;102537.44;16141624;19;129920;-55
2022/08/06 18:27:03;;;;;;;7.20;1.90;;;;;;;23.07;31.87;102543.00;16140854;19;129249;-56
2022/08/06 18:32:46;;;;;;;4.70;0.98;;;;;;;23.05;32.31;102552.47;16137207;19;131701;-56
2022/08/06 18:38:11;;;;;;;4.75;1.10;;;;;;;23.03;33.00;102549.06;16140604;19;129252;-56
2022/08/06 18:43:34;;;;;;;3.85;0.80;;;;;;;23.03;33.06;102543.47;16139089;19;128948;-54
2022/08/06 18:49:12;;;;;;;2.85;0.90;;;;;;;23.03;33.25;102545.44;16140557;19;129001;-55
2022/08/06 18:54:40;;;;;;;1.67;0.73;;;;;;;23.03;33.54;102556.59;16135847;19;131154;-54
2022/08/06 19:00:19;;;;;;;3.65;1.10;;;;;;;23.02;33.88;102555.72;16139611;19;129567;-54
2022/08/06 19:05:44;;;;;;;3.90;0.95;;;;;;;23.02;34.08;102560.47;16134036;19;129177;-54
2022/08/06 19:11:13;;;;;;;1.83;0.60;;;;;;;23.02;34.46;102564.09;16138653;19;129550;-56
2022/08/06 19:16:35;;;;;;;3.55;0.85;;;;;;;23.01;35.10;102570.81;16137069;19;129210;-56
2022/08/06 19:21:56;;;;;;;1.98;0.88;;;;;;;23.00;35.03;102571.91;16136957;19;128919;-57
2022/08/06 19:27:19;;;;;;;3.72;0.80;;;;;;;22.99;35.55;102575.78;16132572;19;128902;-56
2022/08/06 19:33:00;;;;;;;4.75;0.70;;;;;;;22.96;35.26;102576.22;16130975;19;129733;-58
2022/08/06 19:38:37;;;;;;;4.18;0.80;;;;;;;22.96;35.73;102580.94;16148904;19;129410;-58
2022/08/06 19:44:00;;;;;;;2.47;0.63;;;;;;;22.96;36.17;102587.41;16149956;19;130282;-57
2022/08/06 19:49:45;;;;;;;5.80;0.80;;;;;;;22.99;36.45;102598.09;16150614;19;129373;-57
2022/08/06 19:55:13;;;;;;;3.22;0.90;;;;;;;23.00;36.09;102594.22;16144113;19;130379;-56
2022/08/06 20:01:06;;;;;;;16.27;1.10;;;;;;;23.04;36.54;102606.59;16140587;19;130070;-58
2022/08/06 20:06:48;;;;;;;10.70;1.17;;;;;;;23.05;36.64;102619.47;16142069;19;129582;-58
2022/08/06 20:12:25;;;;;;;5.43;0.60;;;;;;;23.08;36.73;102617.31;16149797;19;129266;-53
2022/08/06 20:17:52;;;;;;;7.70;0.70;;;;;;;23.10;36.17;102620.72;16147316;19;130123;-55
2022/08/06 20:23:14;;;;;;;9.30;0.88;;;;;;;23.10;36.35;102615.13;16147660;19;131298;-55
2022/08/06 20:28:37;;;;;;;6.78;1.00;;;;;;;23.12;36.42;102621.34;16140406;19;130213;-56
2022/08/06 20:34:19;;;;;;;3.50;0.90;;;;;;;23.13;36.52;102625.84;16147978;19;129413;-57
2022/08/06 20:39:50;;;;;;;1.35;0.60;;;;;;;23.13;36.68;102623.88;16148352;19;129111;-56
2022/08/06 20:45:12;;;;;;;5.45;1.08;;;;;;;23.12;36.92;102624.13;16142924;19;128883;-57
2022/08/06 20:50:52;;;;;;;8.65;0.93;;;;;;;23.12;36.80;102638.09;16143509;19;129602;-58
2022/08/06 20:56:14;;;;;;;10.65;0.95;;;;;;;23.15;36.87;102637.59;16145104;19;129486;-55
2022/08/06 21:01:37;;;;;;;7.88;1.65;;;;;;;23.16;36.60;102640.16;16146042;19;130820;-57
2022/08/06 21:06:59;;;;;;;6.15;0.77;;;;;;;23.18;36.84;102642.72;16139792;19;130704;-56
2022/08/06 21:12:20;;;;;;;2.78;0.80;;;;;;;23.19;37.01;102647.22;16145943;19;129254;-57
2022/08/06 21:17:42;;;;;;;1.63;0.70;;;;;;;23.19;36.89;102652.78;16141647;19;129664;-57
2022/08/06 21:23:16;;;;;;;2.60;0.57;;;;;;;23.19;37.21;102647.22;16141274;19;129357;-57
2022/08/06 21:28:44;;;;;;;3.05;0.60;;;;;;;23.19;37.45;102648.06;16142554;19;128941;-59
2022/08/06 21:34:15;;;;;;;1.33;0.60;;;;;;;23.20;38.08;102651.72;16142859;19;129685;-59
2022/08/06 21:39:37;;;;;;;1.10;0.50;;;;;;;23.20;38.32;102651.72;16143344;19;129260;-57
2022/08/06 21:45:22;;;;;;;1.52;0.60;;;;;;;23.19;38.38;102648.06;16138863;19;129893;-57
2022/08/06 21:50:43;;;;;;;;;;;;;;;23.16;39.02;102648.53;16143631;19;128847;-58
2022/08/06 21:56:09;;;;;;;2.78;0.52;;;;;;;23.17;38.71;102641.88;16142252;19;129658;-57
2022/08/06 22:01:50;;;;;;;1.80;0.70;;;;;;;23.14;38.02;102638.69;16143331;19;129313;-58
2022/08/06 22:07:32;;;;;;;4.53;0.98;;;;;;;23.09;37.63;102635.75;16135657;19;129333;-55
2022/08/06 22:13:14;;;;;;;2.42;0.50;;;;;;;23.04;37.73;102634.50;16140990;19;129257;-57
2022/08/06 22:18:44;;;;;;;2.45;0.70;;;;;;;23.01;37.86;102640.59;16143181;19;131544;-57
2022/08/06 22:24:11;;;;;;;1.55;0.50;;;;;;;23.00;37.91;102638.88;16137617;19;129456;-57
2022/08/06 22:35:16;;;;;;;0.90;0.50;;;;;;;22.94;37.70;102639.81;16141913;19;129307;-57
2022/08/06 22:40:45;;;;;;;3.10;0.70;;;;;;;22.94;37.95;102627.81;16139785;19;129576;-57
2022/08/06 22:46:07;;;;;;;1.08;0.60;;;;;;;22.93;37.64;102632.50;16136630;19;130323;-57
2022/08/06 22:51:31;;;;;;;1.98;0.60;;;;;;;22.91;37.99;102623.50;16137345;19;129681;-57
2022/08/06 22:57:06;;;;;;;7.50;0.70;;;;;;;22.88;37.54;102629.56;16140914;19;131565;-58
2022/08/06 23:02:30;;;;;;;1.13;0.60;;;;;;;22.88;38.29;102618.41;16138051;19;129965;-56
2022/08/06 23:07:52;;;;;;;1.50;0.47;;;;;;;22.85;38.01;102616.91;16134260;19;129767;-56
2022/08/06 23:13:17;;;;;;;0.40;0.32;;;;;;;22.84;37.98;102623.56;16137539;19;129262;-57
2022/08/06 23:18:46;;;;;;;0.40;0.30;;;;;;;22.84;38.19;102612.41;16137739;19;129262;-58
2022/08/06 23:24:08;;;;;;;1.60;0.50;;;;;;;22.82;38.07;102602.56;16135601;19;129913;-58
2022/08/06 23:29:35;;;;;;;1.85;0.60;;;;;;;22.80;38.17;102596.38;16136093;19;129088;-53
2022/08/06 23:35:17;;;;;;;0.77;0.40;;;;;;;22.78;38.37;102595.75;16136260;19;129775;-62
2022/08/06 23:40:57;;;;;;;1.63;0.60;;;;;;;22.78;38.00;102598.53;16134869;19;129328;-58
2022/08/06 23:46:19;;;;;;;2.13;0.70;;;;;;;22.77;38.06;102594.91;16133522;19;129055;-65
2022/08/06 23:51:49;;;;;;;2.35;0.45;;;;;;;22.76;38.41;102595.16;16134928;19;129595;-54
2022/08/06 23:57:26;;;;;;;;;;;;;;;22.70;38.61;102589.41;16137120;19;130330;-52
